sensor_id;sensor_type;location;lat;lon;timestamp;P1;durP1;ratioP1;P2;durP2;ratioP2
76194;SDS011;64964;48.694;21.206;2024-02-21T00:01:21;44.58;;;19.45;;
76194;SDS011;64964;48.694;21.206;2024-02-21T00:03:47;45.90;;;20.37;;
76194;SDS011;64964;48.694;21.206;2024-02-21T00:06:13;44.00;;;19.42;;
76194;SDS011;64964;48.694;21.206;2024-02-21T00:08:38;45.73;;;19.33;;
76194;SDS011;64964;48.694;21.206;2024-02-21T00:11:03;45.73;;;19.10;;
76194;SDS011;64964;48.694;21.206;2024-02-21T00:13:29;44.73;;;19.33;;
76194;SDS011;64964;48.694;21.206;2024-02-21T00:15:54;43.40;;;19.00;;
76194;SDS011;64964;48.694;21.206;2024-02-21T00:18:20;42.00;;;19.13;;
76194;SDS011;64964;48.694;21.206;2024-02-21T00:20:45;42.53;;;17.88;;
76194;SDS011;64964;48.694;21.206;2024-02-21T00:23:11;41.73;;;18.67;;
76194;SDS011;64964;48.694;21.206;2024-02-21T00:25:36;47.45;;;19.15;;
76194;SDS011;64964;48.694;21.206;2024-02-21T00:28:02;44.87;;;19.13;;
76194;SDS011;64964;48.694;21.206;2024-02-21T00:30:28;41.75;;;18.65;;
76194;SDS011;64964;48.694;21.206;2024-02-21T00:32:53;45.03;;;19.50;;
76194;SDS011;64964;48.694;21.206;2024-02-21T00:35:18;40.20;;;18.87;;
76194;SDS011;64964;48.694;21.206;2024-02-21T00:37:44;44.13;;;18.00;;
76194;SDS011;64964;48.694;21.206;2024-02-21T00:40:09;42.13;;;18.73;;
76194;SDS011;64964;48.694;21.206;2024-02-21T00:42:35;40.43;;;18.20;;
76194;SDS011;64964;48.694;21.206;2024-02-21T00:45:01;41.25;;;17.98;;
76194;SDS011;64964;48.694;21.206;2024-02-21T00:47:26;44.23;;;18.57;;
76194;SDS011;64964;48.694;21.206;2024-02-21T00:49:52;40.73;;;18.50;;
76194;SDS011;64964;48.694;21.206;2024-02-21T00:52:17;41.63;;;18.90;;
76194;SDS011;64964;48.694;21.206;2024-02-21T00:54:43;41.37;;;18.97;;
76194;SDS011;64964;48.694;21.206;2024-02-21T00:57:08;44.67;;;18.60;;
76194;SDS011;64964;48.694;21.206;2024-02-21T00:59:33;41.67;;;18.67;;
76194;SDS011;64964;48.694;21.206;2024-02-21T01:01:59;41.35;;;18.70;;
76194;SDS011;64964;48.694;21.206;2024-02-21T01:04:24;45.43;;;19.30;;
76194;SDS011;64964;48.694;21.206;2024-02-21T01:06:50;42.87;;;18.43;;
76194;SDS011;64964;48.694;21.206;2024-02-21T01:09:15;42.93;;;19.00;;
76194;SDS011;64964;48.694;21.206;2024-02-21T01:11:41;43.22;;;18.42;;
76194;SDS011;64964;48.694;21.206;2024-02-21T01:14:06;41.33;;;18.53;;
76194;SDS011;64964;48.694;21.206;2024-02-21T01:16:31;39.20;;;17.77;;
76194;SDS011;64964;48.694;21.206;2024-02-21T01:18:57;38.03;;;17.87;;
76194;SDS011;64964;48.694;21.206;2024-02-21T01:21:22;37.85;;;18.08;;
76194;SDS011;64964;48.694;21.206;2024-02-21T01:23:48;42.40;;;17.93;;
76194;SDS011;64964;48.694;21.206;2024-02-21T01:26:13;43.27;;;17.07;;
76194;SDS011;64964;48.694;21.206;2024-02-21T01:28:40;38.35;;;16.98;;
76194;SDS011;64964;48.694;21.206;2024-02-21T01:31:06;37.63;;;17.47;;
76194;SDS011;64964;48.694;21.206;2024-02-21T01:33:32;37.57;;;16.60;;
76194;SDS011;64964;48.694;21.206;2024-02-21T01:36:01;35.42;;;16.35;;
76194;SDS011;64964;48.694;21.206;2024-02-21T01:38:31;35.72;;;15.75;;
76194;SDS011;64964;48.694;21.206;2024-02-21T01:40:57;33.93;;;15.67;;
76194;SDS011;64964;48.694;21.206;2024-02-21T01:43:22;32.87;;;15.63;;
76194;SDS011;64964;48.694;21.206;2024-02-21T01:45:54;34.40;;;15.90;;
76194;SDS011;64964;48.694;21.206;2024-02-21T01:48:24;33.03;;;14.67;;
76194;SDS011;64964;48.694;21.206;2024-02-21T01:50:50;31.00;;;14.07;;
76194;SDS011;64964;48.694;21.206;2024-02-21T01:53:16;31.63;;;14.23;;
76194;SDS011;64964;48.694;21.206;2024-02-21T01:55:48;30.67;;;14.90;;
76194;SDS011;64964;48.694;21.206;2024-02-21T01:58:14;28.30;;;13.65;;
76194;SDS011;64964;48.694;21.206;2024-02-21T02:00:43;28.57;;;12.97;;
76194;SDS011;64964;48.694;21.206;2024-02-21T02:03:10;26.75;;;12.80;;
76194;SDS011;64964;48.694;21.206;2024-02-21T02:05:42;27.20;;;12.32;;
76194;SDS011;64964;48.694;21.206;2024-02-21T02:08:14;23.02;;;10.82;;
76194;SDS011;64964;48.694;21.206;2024-02-21T02:10:40;18.48;;;9.13;;
76194;SDS011;64964;48.694;21.206;2024-02-21T02:13:06;20.80;;;8.83;;
76194;SDS011;64964;48.694;21.206;2024-02-21T02:18:26;19.00;;;8.33;;
76194;SDS011;64964;48.694;21.206;2024-02-21T02:20:52;16.77;;;8.30;;
76194;SDS011;64964;48.694;21.206;2024-02-21T02:23:30;15.87;;;8.53;;
76194;SDS011;64964;48.694;21.206;2024-02-21T02:25:56;19.02;;;8.73;;
76194;SDS011;64964;48.694;21.206;2024-02-21T02:28:22;17.33;;;8.07;;
76194;SDS011;64964;48.694;21.206;2024-02-21T02:30:48;17.50;;;7.97;;
76194;SDS011;64964;48.694;21.206;2024-02-21T02:33:13;16.25;;;7.82;;
76194;SDS011;64964;48.694;21.206;2024-02-21T02:35:39;13.40;;;7.63;;
76194;SDS011;64964;48.694;21.206;2024-02-21T02:38:05;15.83;;;7.57;;
76194;SDS011;64964;48.694;21.206;2024-02-21T02:40:31;16.00;;;7.60;;
76194;SDS011;64964;48.694;21.206;2024-02-21T02:42:58;15.57;;;7.72;;
76194;SDS011;64964;48.694;21.206;2024-02-21T02:45:23;12.97;;;6.40;;
76194;SDS011;64964;48.694;21.206;2024-02-21T02:47:49;9.80;;;5.63;;
76194;SDS011;64964;48.694;21.206;2024-02-21T02:50:14;8.18;;;4.55;;
76194;SDS011;64964;48.694;21.206;2024-02-21T02:52:40;8.50;;;5.03;;
76194;SDS011;64964;48.694;21.206;2024-02-21T02:55:05;9.40;;;4.63;;
76194;SDS011;64964;48.694;21.206;2024-02-21T02:57:32;6.77;;;4.53;;
76194;SDS011;64964;48.694;21.206;2024-02-21T02:59:57;8.60;;;4.10;;
76194;SDS011;64964;48.694;21.206;2024-02-21T03:02:23;8.07;;;3.43;;
76194;SDS011;64964;48.694;21.206;2024-02-21T03:04:48;6.75;;;3.28;;
76194;SDS011;64964;48.694;21.206;2024-02-21T03:07:14;6.43;;;3.50;;
76194;SDS011;64964;48.694;21.206;2024-02-21T03:09:40;6.70;;;3.90;;
76194;SDS011;64964;48.694;21.206;2024-02-21T03:12:07;5.78;;;3.25;;
76194;SDS011;64964;48.694;21.206;2024-02-21T03:14:33;5.20;;;3.03;;
76194;SDS011;64964;48.694;21.206;2024-02-21T03:16:59;5.43;;;3.40;;
76194;SDS011;64964;48.694;21.206;2024-02-21T03:19:25;5.25;;;3.25;;
76194;SDS011;64964;48.694;21.206;2024-02-21T03:21:51;4.70;;;3.20;;
76194;SDS011;64964;48.694;21.206;2024-02-21T03:24:17;6.35;;;3.45;;
76194;SDS011;64964;48.694;21.206;2024-02-21T03:26:43;5.03;;;3.17;;
76194;SDS011;64964;48.694;21.206;2024-02-21T03:29:09;5.13;;;3.20;;
76194;SDS011;64964;48.694;21.206;2024-02-21T03:31:36;6.10;;;3.75;;
76194;SDS011;64964;48.694;21.206;2024-02-21T03:34:01;5.67;;;3.40;;
76194;SDS011;64964;48.694;21.206;2024-02-21T03:36:27;5.10;;;3.10;;
76194;SDS011;64964;48.694;21.206;2024-02-21T03:38:53;5.35;;;3.13;;
76194;SDS011;64964;48.694;21.206;2024-02-21T03:41:19;5.07;;;3.17;;
76194;SDS011;64964;48.694;21.206;2024-02-21T03:43:45;8.18;;;3.25;;
76194;SDS011;64964;48.694;21.206;2024-02-21T03:46:10;6.60;;;3.60;;
76194;SDS011;64964;48.694;21.206;2024-02-21T03:48:35;7.50;;;3.37;;
76194;SDS011;64964;48.694;21.206;2024-02-21T03:51:01;6.80;;;3.30;;
76194;SDS011;64964;48.694;21.206;2024-02-21T03:53:27;5.70;;;3.03;;
76194;SDS011;64964;48.694;21.206;2024-02-21T03:55:53;5.93;;;3.47;;
76194;SDS011;64964;48.694;21.206;2024-02-21T03:58:19;6.95;;;3.30;;
76194;SDS011;64964;48.694;21.206;2024-02-21T04:00:44;5.43;;;3.30;;
76194;SDS011;64964;48.694;21.206;2024-02-21T04:03:10;5.13;;;3.43;;
76194;SDS011;64964;48.694;21.206;2024-02-21T04:05:35;5.67;;;3.30;;
76194;SDS011;64964;48.694;21.206;2024-02-21T04:08:02;5.47;;;3.10;;
76194;SDS011;64964;48.694;21.206;2024-02-21T04:10:29;5.38;;;3.38;;
76194;SDS011;64964;48.694;21.206;2024-02-21T04:12:55;6.67;;;3.50;;
76194;SDS011;64964;48.694;21.206;2024-02-21T04:15:20;7.53;;;4.13;;
76194;SDS011;64964;48.694;21.206;2024-02-21T04:17:46;9.68;;;4.55;;
76194;SDS011;64964;48.694;21.206;2024-02-21T04:20:17;9.47;;;4.53;;
76194;SDS011;64964;48.694;21.206;2024-02-21T04:22:43;9.15;;;5.07;;
76194;SDS011;64964;48.694;21.206;2024-02-21T04:25:09;9.25;;;4.85;;
76194;SDS011;64964;48.694;21.206;2024-02-21T04:27:36;9.03;;;4.97;;
76194;SDS011;64964;48.694;21.206;2024-02-21T04:30:02;10.52;;;4.50;;
76194;SDS011;64964;48.694;21.206;2024-02-21T04:32:28;10.15;;;5.28;;
76194;SDS011;64964;48.694;21.206;2024-02-21T04:34:53;10.20;;;5.43;;
76194;SDS011;64964;48.694;21.206;2024-02-21T04:37:18;11.00;;;5.50;;
76194;SDS011;64964;48.694;21.206;2024-02-21T04:39:45;9.57;;;5.22;;
76194;SDS011;64964;48.694;21.206;2024-02-21T04:42:11;9.40;;;5.37;;
76194;SDS011;64964;48.694;21.206;2024-02-21T04:44:36;11.17;;;5.73;;
76194;SDS011;64964;48.694;21.206;2024-02-21T04:47:01;8.77;;;5.10;;
76194;SDS011;64964;48.694;21.206;2024-02-21T04:49:28;10.13;;;5.50;;
76194;SDS011;64964;48.694;21.206;2024-02-21T04:51:54;9.18;;;5.03;;
76194;SDS011;64964;48.694;21.206;2024-02-21T04:54:19;9.37;;;5.77;;
76194;SDS011;64964;48.694;21.206;2024-02-21T04:56:44;11.07;;;6.00;;
76194;SDS011;64964;48.694;21.206;2024-02-21T04:59:10;12.83;;;5.50;;
76194;SDS011;64964;48.694;21.206;2024-02-21T05:01:35;8.83;;;5.13;;
76194;SDS011;64964;48.694;21.206;2024-02-21T05:04:00;10.60;;;5.57;;
76194;SDS011;64964;48.694;21.206;2024-02-21T05:06:26;8.77;;;5.27;;
76194;SDS011;64964;48.694;21.206;2024-02-21T05:08:51;11.43;;;5.40;;
76194;SDS011;64964;48.694;21.206;2024-02-21T05:11:16;9.33;;;4.80;;
76194;SDS011;64964;48.694;21.206;2024-02-21T05:13:42;10.20;;;5.00;;
76194;SDS011;64964;48.694;21.206;2024-02-21T05:16:07;8.60;;;5.00;;
76194;SDS011;64964;48.694;21.206;2024-02-21T05:18:32;8.80;;;4.90;;
76194;SDS011;64964;48.694;21.206;2024-02-21T05:20:58;10.40;;;5.00;;
76194;SDS011;64964;48.694;21.206;2024-02-21T05:23:24;8.25;;;4.47;;
76194;SDS011;64964;48.694;21.206;2024-02-21T05:25:50;7.60;;;4.30;;
76194;SDS011;64964;48.694;21.206;2024-02-21T05:28:16;10.75;;;5.10;;
76194;SDS011;64964;48.694;21.206;2024-02-21T05:30:42;7.43;;;4.37;;
76194;SDS011;64964;48.694;21.206;2024-02-21T05:33:08;6.90;;;4.13;;
76194;SDS011;64964;48.694;21.206;2024-02-21T05:35:34;9.07;;;4.30;;
76194;SDS011;64964;48.694;21.206;2024-02-21T05:38:00;9.53;;;4.47;;
76194;SDS011;64964;48.694;21.206;2024-02-21T05:40:25;9.13;;;4.25;;
76194;SDS011;64964;48.694;21.206;2024-02-21T05:42:51;7.70;;;4.20;;
76194;SDS011;64964;48.694;21.206;2024-02-21T05:45:17;7.88;;;4.05;;
76194;SDS011;64964;48.694;21.206;2024-02-21T05:47:42;7.00;;;3.90;;
76194;SDS011;64964;48.694;21.206;2024-02-21T05:50:08;6.70;;;4.15;;
76194;SDS011;64964;48.694;21.206;2024-02-21T05:52:34;7.35;;;4.18;;
76194;SDS011;64964;48.694;21.206;2024-02-21T05:54:59;8.43;;;4.30;;
76194;SDS011;64964;48.694;21.206;2024-02-21T05:57:25;7.27;;;4.00;;
76194;SDS011;64964;48.694;21.206;2024-02-21T05:59:50;8.30;;;4.07;;
76194;SDS011;64964;48.694;21.206;2024-02-21T06:02:15;6.60;;;3.90;;
76194;SDS011;64964;48.694;21.206;2024-02-21T06:04:41;7.93;;;4.13;;
76194;SDS011;64964;48.694;21.206;2024-02-21T06:07:07;6.93;;;3.87;;
76194;SDS011;64964;48.694;21.206;2024-02-21T06:09:33;6.55;;;3.75;;
76194;SDS011;64964;48.694;21.206;2024-02-21T06:11:58;5.77;;;3.27;;
76194;SDS011;64964;48.694;21.206;2024-02-21T06:14:24;6.80;;;3.83;;
76194;SDS011;64964;48.694;21.206;2024-02-21T06:16:49;6.67;;;3.73;;
76194;SDS011;64964;48.694;21.206;2024-02-21T06:19:14;8.07;;;4.20;;
76194;SDS011;64964;48.694;21.206;2024-02-21T06:21:40;7.63;;;3.77;;
76194;SDS011;64964;48.694;21.206;2024-02-21T06:24:05;7.53;;;4.03;;
76194;SDS011;64964;48.694;21.206;2024-02-21T06:26:31;4.77;;;3.00;;
76194;SDS011;64964;48.694;21.206;2024-02-21T06:28:56;5.80;;;2.93;;
76194;SDS011;64964;48.694;21.206;2024-02-21T06:31:22;4.90;;;2.90;;
76194;SDS011;64964;48.694;21.206;2024-02-21T06:33:47;5.80;;;3.10;;
76194;SDS011;64964;48.694;21.206;2024-02-21T06:36:13;5.07;;;3.23;;
76194;SDS011;64964;48.694;21.206;2024-02-21T06:38:38;5.10;;;3.00;;
76194;SDS011;64964;48.694;21.206;2024-02-21T06:41:03;5.47;;;3.23;;
76194;SDS011;64964;48.694;21.206;2024-02-21T06:43:29;6.10;;;3.13;;
76194;SDS011;64964;48.694;21.206;2024-02-21T06:45:55;5.13;;;3.10;;
76194;SDS011;64964;48.694;21.206;2024-02-21T06:48:21;5.57;;;3.38;;
76194;SDS011;64964;48.694;21.206;2024-02-21T06:50:47;4.10;;;2.60;;
76194;SDS011;64964;48.694;21.206;2024-02-21T06:53:13;4.67;;;2.70;;
76194;SDS011;64964;48.694;21.206;2024-02-21T06:55:38;5.90;;;3.20;;
76194;SDS011;64964;48.694;21.206;2024-02-21T06:58:04;4.57;;;3.03;;
76194;SDS011;64964;48.694;21.206;2024-02-21T07:00:29;5.60;;;3.00;;
76194;SDS011;64964;48.694;21.206;2024-02-21T07:02:55;4.65;;;2.90;;
76194;SDS011;64964;48.694;21.206;2024-02-21T07:05:20;4.40;;;2.77;;
76194;SDS011;64964;48.694;21.206;2024-02-21T07:07:46;4.53;;;2.92;;
76194;SDS011;64964;48.694;21.206;2024-02-21T07:10:11;5.53;;;2.60;;
76194;SDS011;64964;48.694;21.206;2024-02-21T07:12:37;5.20;;;2.60;;
76194;SDS011;64964;48.694;21.206;2024-02-21T07:15:08;4.80;;;2.97;;
76194;SDS011;64964;48.694;21.206;2024-02-21T07:17:34;5.00;;;2.53;;
76194;SDS011;64964;48.694;21.206;2024-02-21T07:19:59;4.82;;;2.70;;
76194;SDS011;64964;48.694;21.206;2024-02-21T07:22:26;4.77;;;2.30;;
76194;SDS011;64964;48.694;21.206;2024-02-21T07:24:51;3.97;;;2.50;;
76194;SDS011;64964;48.694;21.206;2024-02-21T07:27:17;6.27;;;2.90;;
76194;SDS011;64964;48.694;21.206;2024-02-21T07:29:42;3.50;;;2.50;;
76194;SDS011;64964;48.694;21.206;2024-02-21T07:32:07;2.60;;;1.73;;
76194;SDS011;64964;48.694;21.206;2024-02-21T07:34:33;2.93;;;1.90;;
76194;SDS011;64964;48.694;21.206;2024-02-21T07:36:58;2.67;;;2.00;;
76194;SDS011;64964;48.694;21.206;2024-02-21T07:39:23;3.07;;;1.73;;
76194;SDS011;64964;48.694;21.206;2024-02-21T07:41:49;5.80;;;2.23;;
76194;SDS011;64964;48.694;21.206;2024-02-21T07:44:15;3.10;;;2.20;;
76194;SDS011;64964;48.694;21.206;2024-02-21T07:46:40;4.28;;;2.10;;
76194;SDS011;64964;48.694;21.206;2024-02-21T07:49:06;4.37;;;2.00;;
76194;SDS011;64964;48.694;21.206;2024-02-21T07:51:31;3.20;;;2.40;;
76194;SDS011;64964;48.694;21.206;2024-02-21T07:53:56;3.63;;;2.00;;
76194;SDS011;64964;48.694;21.206;2024-02-21T07:56:22;2.77;;;2.23;;
76194;SDS011;64964;48.694;21.206;2024-02-21T07:58:47;3.03;;;1.80;;
76194;SDS011;64964;48.694;21.206;2024-02-21T08:01:18;1.92;;;1.73;;
76194;SDS011;64964;48.694;21.206;2024-02-21T08:03:44;3.17;;;1.90;;
76194;SDS011;64964;48.694;21.206;2024-02-21T08:06:11;3.08;;;1.90;;
76194;SDS011;64964;48.694;21.206;2024-02-21T08:08:37;3.17;;;1.70;;
76194;SDS011;64964;48.694;21.206;2024-02-21T08:11:03;2.70;;;1.70;;
76194;SDS011;64964;48.694;21.206;2024-02-21T08:13:28;2.13;;;1.60;;
76194;SDS011;64964;48.694;21.206;2024-02-21T08:15:53;2.63;;;1.50;;
76194;SDS011;64964;48.694;21.206;2024-02-21T08:18:19;1.90;;;1.50;;
76194;SDS011;64964;48.694;21.206;2024-02-21T08:20:45;3.17;;;2.00;;
76194;SDS011;64964;48.694;21.206;2024-02-21T08:23:10;2.10;;;1.70;;
76194;SDS011;64964;48.694;21.206;2024-02-21T08:25:35;1.70;;;1.60;;
76194;SDS011;64964;48.694;21.206;2024-02-21T08:28:01;3.90;;;2.22;;
76194;SDS011;64964;48.694;21.206;2024-02-21T08:30:27;5.37;;;3.93;;
76194;SDS011;64964;48.694;21.206;2024-02-21T08:32:52;6.78;;;4.00;;
76194;SDS011;64964;48.694;21.206;2024-02-21T08:35:21;5.07;;;3.63;;
76194;SDS011;64964;48.694;21.206;2024-02-21T08:37:49;4.13;;;3.33;;
76194;SDS011;64964;48.694;21.206;2024-02-21T08:40:15;3.92;;;3.17;;
76194;SDS011;64964;48.694;21.206;2024-02-21T08:42:46;3.95;;;2.80;;
76194;SDS011;64964;48.694;21.206;2024-02-21T08:45:11;3.57;;;2.63;;
76194;SDS011;64964;48.694;21.206;2024-02-21T08:47:39;3.30;;;2.20;;
76194;SDS011;64964;48.694;21.206;2024-02-21T08:50:05;4.50;;;2.78;;
76194;SDS011;64964;48.694;21.206;2024-02-21T08:52:31;2.72;;;2.30;;
76194;SDS011;64964;48.694;21.206;2024-02-21T08:54:56;2.70;;;2.10;;
76194;SDS011;64964;48.694;21.206;2024-02-21T08:57:22;2.60;;;2.00;;
76194;SDS011;64964;48.694;21.206;2024-02-21T08:59:47;2.33;;;2.00;;
76194;SDS011;64964;48.694;21.206;2024-02-21T09:02:13;2.53;;;1.80;;
76194;SDS011;64964;48.694;21.206;2024-02-21T09:04:39;1.88;;;1.60;;
76194;SDS011;64964;48.694;21.206;2024-02-21T09:07:04;1.53;;;1.37;;
76194;SDS011;64964;48.694;21.206;2024-02-21T09:09:29;2.20;;;1.70;;
76194;SDS011;64964;48.694;21.206;2024-02-21T09:11:55;2.00;;;1.50;;
76194;SDS011;64964;48.694;21.206;2024-02-21T09:14:20;2.35;;;1.50;;
76194;SDS011;64964;48.694;21.206;2024-02-21T09:16:45;1.90;;;1.40;;
76194;SDS011;64964;48.694;21.206;2024-02-21T09:19:11;2.00;;;1.43;;
76194;SDS011;64964;48.694;21.206;2024-02-21T09:21:37;1.30;;;1.20;;
76194;SDS011;64964;48.694;21.206;2024-02-21T09:24:03;1.77;;;1.50;;
76194;SDS011;64964;48.694;21.206;2024-02-21T09:26:29;1.90;;;1.42;;
76194;SDS011;64964;48.694;21.206;2024-02-21T09:28:54;1.80;;;1.60;;
76194;SDS011;64964;48.694;21.206;2024-02-21T09:31:19;1.40;;;1.30;;
76194;SDS011;64964;48.694;21.206;2024-02-21T09:33:45;1.57;;;1.47;;
76194;SDS011;64964;48.694;21.206;2024-02-21T09:36:10;1.95;;;1.35;;
76194;SDS011;64964;48.694;21.206;2024-02-21T09:38:36;3.30;;;1.40;;
76194;SDS011;64964;48.694;21.206;2024-02-21T09:41:08;1.93;;;1.63;;
76194;SDS011;64964;48.694;21.206;2024-02-21T09:43:43;1.58;;;1.35;;
76194;SDS011;64964;48.694;21.206;2024-02-21T09:46:13;1.40;;;1.20;;
76194;SDS011;64964;48.694;21.206;2024-02-21T09:51:54;1.40;;;1.30;;
76194;SDS011;64964;48.694;21.206;2024-02-21T09:54:21;1.80;;;1.40;;
76194;SDS011;64964;48.694;21.206;2024-02-21T09:56:47;2.27;;;1.40;;
76194;SDS011;64964;48.694;21.206;2024-02-21T09:59:15;1.50;;;1.35;;
76194;SDS011;64964;48.694;21.206;2024-02-21T10:01:44;2.00;;;1.63;;
76194;SDS011;64964;48.694;21.206;2024-02-21T10:04:11;3.30;;;2.07;;
76194;SDS011;64964;48.694;21.206;2024-02-21T10:06:37;3.50;;;2.28;;
76194;SDS011;64964;48.694;21.206;2024-02-21T10:09:05;4.25;;;2.60;;
76194;SDS011;64964;48.694;21.206;2024-02-21T10:11:31;4.00;;;2.55;;
76194;SDS011;64964;48.694;21.206;2024-02-21T10:14:05;3.83;;;2.50;;
76194;SDS011;64964;48.694;21.206;2024-02-21T10:16:31;3.50;;;2.50;;
76194;SDS011;64964;48.694;21.206;2024-02-21T10:18:58;6.00;;;3.10;;
76194;SDS011;64964;48.694;21.206;2024-02-21T10:21:24;3.17;;;2.57;;
76194;SDS011;64964;48.694;21.206;2024-02-21T10:23:49;5.20;;;2.90;;
76194;SDS011;64964;48.694;21.206;2024-02-21T10:26:16;6.15;;;2.95;;
76194;SDS011;64964;48.694;21.206;2024-02-21T10:28:42;4.63;;;2.90;;
76194;SDS011;64964;48.694;21.206;2024-02-21T10:31:10;5.63;;;2.63;;
76194;SDS011;64964;48.694;21.206;2024-02-21T10:33:36;3.38;;;2.50;;
76194;SDS011;64964;48.694;21.206;2024-02-21T10:36:09;3.97;;;2.70;;
76194;SDS011;64964;48.694;21.206;2024-02-21T10:38:36;4.78;;;2.50;;
76194;SDS011;64964;48.694;21.206;2024-02-21T10:41:02;3.38;;;2.50;;
76194;SDS011;64964;48.694;21.206;2024-02-21T10:43:30;5.35;;;2.72;;
76194;SDS011;64964;48.694;21.206;2024-02-21T10:46:02;5.13;;;3.08;;
76194;SDS011;64964;48.694;21.206;2024-02-21T10:48:33;3.83;;;2.80;;
76194;SDS011;64964;48.694;21.206;2024-02-21T10:56:33;4.05;;;2.60;;
76194;SDS011;64964;48.694;21.206;2024-02-21T10:59:05;5.68;;;2.72;;
76194;SDS011;64964;48.694;21.206;2024-02-21T11:01:31;5.10;;;2.93;;
76194;SDS011;64964;48.694;21.206;2024-02-21T11:04:04;4.07;;;2.60;;
76194;SDS011;64964;48.694;21.206;2024-02-21T11:06:31;3.95;;;2.63;;
76194;SDS011;64964;48.694;21.206;2024-02-21T11:09:00;4.57;;;2.90;;
76194;SDS011;64964;48.694;21.206;2024-02-21T11:11:32;3.43;;;2.27;;
76194;SDS011;64964;48.694;21.206;2024-02-21T11:14:06;5.25;;;2.60;;
76194;SDS011;64964;48.694;21.206;2024-02-21T11:16:35;3.85;;;2.50;;
76194;SDS011;64964;48.694;21.206;2024-02-21T11:19:04;4.55;;;2.88;;
76194;SDS011;64964;48.694;21.206;2024-02-21T11:21:34;4.50;;;2.88;;
76194;SDS011;64964;48.694;21.206;2024-02-21T11:24:03;3.77;;;2.57;;
76194;SDS011;64964;48.694;21.206;2024-02-21T11:26:29;4.88;;;2.63;;
76194;SDS011;64964;48.694;21.206;2024-02-21T11:28:56;5.32;;;2.60;;
76194;SDS011;64964;48.694;21.206;2024-02-21T11:31:26;4.07;;;2.35;;
76194;SDS011;64964;48.694;21.206;2024-02-21T11:33:54;5.78;;;2.47;;
76194;SDS011;64964;48.694;21.206;2024-02-21T11:36:25;4.13;;;2.30;;
76194;SDS011;64964;48.694;21.206;2024-02-21T11:38:52;4.50;;;2.40;;
76194;SDS011;64964;48.694;21.206;2024-02-21T11:41:20;3.03;;;2.00;;
76194;SDS011;64964;48.694;21.206;2024-02-21T11:43:46;6.67;;;2.60;;
76194;SDS011;64964;48.694;21.206;2024-02-21T11:46:14;4.75;;;2.97;;
76194;SDS011;64964;48.694;21.206;2024-02-21T11:48:40;5.73;;;2.80;;
76194;SDS011;64964;48.694;21.206;2024-02-21T11:51:06;4.25;;;2.60;;
76194;SDS011;64964;48.694;21.206;2024-02-21T11:53:31;5.33;;;2.80;;
76194;SDS011;64964;48.694;21.206;2024-02-21T11:55:58;5.05;;;2.40;;
76194;SDS011;64964;48.694;21.206;2024-02-21T11:58:24;4.25;;;2.40;;
76194;SDS011;64964;48.694;21.206;2024-02-21T12:00:50;4.20;;;2.03;;
76194;SDS011;64964;48.694;21.206;2024-02-21T12:03:15;3.53;;;2.17;;
76194;SDS011;64964;48.694;21.206;2024-02-21T12:05:41;5.57;;;2.53;;
76194;SDS011;64964;48.694;21.206;2024-02-21T12:08:07;4.18;;;2.92;;
76194;SDS011;64964;48.694;21.206;2024-02-21T12:10:32;3.33;;;2.40;;
76194;SDS011;64964;48.694;21.206;2024-02-21T12:13:07;5.28;;;3.13;;
76194;SDS011;64964;48.694;21.206;2024-02-21T12:15:33;4.28;;;2.85;;
76194;SDS011;64964;48.694;21.206;2024-02-21T12:17:58;5.13;;;3.10;;
76194;SDS011;64964;48.694;21.206;2024-02-21T12:20:25;4.45;;;2.92;;
76194;SDS011;64964;48.694;21.206;2024-02-21T12:22:50;7.60;;;3.00;;
76194;SDS011;64964;48.694;21.206;2024-02-21T12:25:17;4.53;;;2.40;;
76194;SDS011;64964;48.694;21.206;2024-02-21T12:27:48;3.13;;;2.30;;
76194;SDS011;64964;48.694;21.206;2024-02-21T12:30:14;4.28;;;2.38;;
76194;SDS011;64964;48.694;21.206;2024-02-21T12:32:40;3.47;;;2.30;;
76194;SDS011;64964;48.694;21.206;2024-02-21T12:35:06;2.30;;;1.80;;
76194;SDS011;64964;48.694;21.206;2024-02-21T12:37:32;2.63;;;1.80;;
76194;SDS011;64964;48.694;21.206;2024-02-21T12:39:58;2.30;;;1.55;;
76194;SDS011;64964;48.694;21.206;2024-02-21T12:42:23;1.93;;;1.77;;
76194;SDS011;64964;48.694;21.206;2024-02-21T12:44:50;3.20;;;1.70;;
76194;SDS011;64964;48.694;21.206;2024-02-21T12:47:17;1.63;;;1.30;;
76194;SDS011;64964;48.694;21.206;2024-02-21T12:49:44;1.45;;;1.33;;
76194;SDS011;64964;48.694;21.206;2024-02-21T12:52:09;1.70;;;1.23;;
76194;SDS011;64964;48.694;21.206;2024-02-21T12:54:35;2.40;;;1.40;;
76194;SDS011;64964;48.694;21.206;2024-02-21T12:57:00;1.42;;;1.15;;
76194;SDS011;64964;48.694;21.206;2024-02-21T12:59:28;2.03;;;1.38;;
76194;SDS011;64964;48.694;21.206;2024-02-21T13:01:54;1.40;;;1.30;;
76194;SDS011;64964;48.694;21.206;2024-02-21T13:04:19;1.17;;;1.00;;
76194;SDS011;64964;48.694;21.206;2024-02-21T13:06:46;2.10;;;1.10;;
76194;SDS011;64964;48.694;21.206;2024-02-21T13:09:12;2.07;;;1.00;;
76194;SDS011;64964;48.694;21.206;2024-02-21T13:11:38;1.50;;;1.10;;
76194;SDS011;64964;48.694;21.206;2024-02-21T13:14:05;1.10;;;1.00;;
76194;SDS011;64964;48.694;21.206;2024-02-21T13:16:31;1.20;;;1.02;;
76194;SDS011;64964;48.694;21.206;2024-02-21T13:18:56;2.07;;;1.10;;
76194;SDS011;64964;48.694;21.206;2024-02-21T13:21:22;2.20;;;1.13;;
76194;SDS011;64964;48.694;21.206;2024-02-21T13:23:47;1.37;;;1.00;;
76194;SDS011;64964;48.694;21.206;2024-02-21T13:26:12;2.30;;;1.20;;
76194;SDS011;64964;48.694;21.206;2024-02-21T13:28:39;1.40;;;1.00;;
76194;SDS011;64964;48.694;21.206;2024-02-21T13:31:04;1.40;;;1.30;;
76194;SDS011;64964;48.694;21.206;2024-02-21T13:33:30;1.07;;;1.00;;
76194;SDS011;64964;48.694;21.206;2024-02-21T13:35:55;1.35;;;1.20;;
76194;SDS011;64964;48.694;21.206;2024-02-21T13:38:20;1.33;;;1.10;;
76194;SDS011;64964;48.694;21.206;2024-02-21T13:40:46;1.40;;;1.07;;
76194;SDS011;64964;48.694;21.206;2024-02-21T13:43:11;1.67;;;1.13;;
76194;SDS011;64964;48.694;21.206;2024-02-21T13:45:37;1.17;;;0.80;;
76194;SDS011;64964;48.694;21.206;2024-02-21T13:48:03;1.52;;;1.00;;
76194;SDS011;64964;48.694;21.206;2024-02-21T13:50:31;1.98;;;1.20;;
76194;SDS011;64964;48.694;21.206;2024-02-21T13:52:57;2.30;;;0.87;;
76194;SDS011;64964;48.694;21.206;2024-02-21T13:55:22;1.83;;;0.80;;
76194;SDS011;64964;48.694;21.206;2024-02-21T13:57:51;1.60;;;1.20;;
76194;SDS011;64964;48.694;21.206;2024-02-21T14:00:16;1.20;;;1.00;;
76194;SDS011;64964;48.694;21.206;2024-02-21T14:02:43;1.50;;;1.25;;
76194;SDS011;64964;48.694;21.206;2024-02-21T14:05:09;0.90;;;0.90;;
76194;SDS011;64964;48.694;21.206;2024-02-21T14:07:35;1.00;;;0.90;;
76194;SDS011;64964;48.694;21.206;2024-02-21T14:10:00;2.20;;;1.10;;
76194;SDS011;64964;48.694;21.206;2024-02-21T14:12:26;1.98;;;1.00;;
76194;SDS011;64964;48.694;21.206;2024-02-21T14:14:51;2.80;;;1.20;;
76194;SDS011;64964;48.694;21.206;2024-02-21T14:17:17;1.23;;;1.00;;
76194;SDS011;64964;48.694;21.206;2024-02-21T14:19:42;1.45;;;1.20;;
76194;SDS011;64964;48.694;21.206;2024-02-21T14:22:08;2.37;;;1.40;;
76194;SDS011;64964;48.694;21.206;2024-02-21T14:24:33;1.40;;;1.10;;
76194;SDS011;64964;48.694;21.206;2024-02-21T14:26:59;2.13;;;1.40;;
76194;SDS011;64964;48.694;21.206;2024-02-21T14:29:25;2.30;;;1.10;;
76194;SDS011;64964;48.694;21.206;2024-02-21T14:31:50;1.85;;;1.17;;
76194;SDS011;64964;48.694;21.206;2024-02-21T14:34:15;4.33;;;1.10;;